Time;durP1;ratioP1;P1;durP2;ratioP2;P2;SDS_P1;SDS_P2;PMS_P1;PMS_P2;Temp;Humidity;BMP_temperature;BMP_pressure;BME280_temperature;BME280_humidity;BME280_pressure;Samples;Min_cycle;Max_cycle;Signal;HPM_P1;HPM_P2
2024/03/04 00:10:33;;;;;;;39.03;22.10;;;;;;;2.00;100.00;99300.28;4897573;29;20071;-96
2024/03/04 00:32:45;;;;;;;41.45;20.88;;;;;;;2.08;100.00;99277.06;6028885;23;20022;31
2024/03/04 00:35:21;;;;;;;41.28;22.08;;;;;;;2.05;100.00;99274.69;4844502;29;20045;-96
2024/03/04 00:37:53;;;;;;;45.25;21.80;;;;;;;2.06;100.00;99276.34;4864473;23;20045;-96
2024/03/04 00:43:43;;;;;;;36.75;19.60;;;;;;;1.93;100.00;99278.22;4862414;29;20043;-96
2024/03/04 00:46:13;;;;;;;38.75;19.52;;;;;;;1.83;100.00;99278.13;4845559;29;20049;-96
2024/03/04 00:48:44;;;;;;;39.88;20.45;;;;;;;1.68;100.00;99272.28;4836927;29;20045;-96
2024/03/04 00:51:15;;;;;;;37.80;20.90;;;;;;;1.73;100.00;99281.44;4843695;29;20478;-95
2024/03/04 00:53:53;;;;;;;39.03;20.05;;;;;;;1.78;100.00;99275.03;4843755;29;20041;-95
2024/03/04 00:56:40;;;;;;;34.80;16.83;;;;;;;1.85;100.00;99268.38;4861921;29;20037;-95
2024/03/04 00:59:28;;;;;;;28.33;13.88;;;;;;;1.92;100.00;99263.53;4851328;29;20101;-96
2024/03/04 01:01:58;;;;;;;29.70;15.38;;;;;;;1.97;100.00;99271.84;4837310;29;20045;-96
2024/03/04 01:04:25;;;;;;;30.95;17.15;;;;;;;1.98;100.00;99260.47;4837513;29;20041;-96
2024/03/04 01:06:57;;;;;;;26.20;15.00;;;;;;;2.02;100.00;99271.50;4845954;29;20128;-96
2024/03/04 01:09:23;;;;;;;22.02;13.07;;;;;;;2.02;100.00;99272.34;4830083;29;20037;-96
2024/03/04 01:12:16;;;;;;;29.98;13.55;;;;;;;2.06;100.00;99268.53;4818903;29;20048;-95
2024/03/04 01:14:42;;;;;;;25.25;11.52;;;;;;;2.12;100.00;99274.22;4828574;29;20067;-96
2024/03/04 01:17:16;;;;;;;18.30;8.00;;;;;;;2.22;100.00;99275.16;4835017;29;20033;-96
2024/03/04 01:19:47;;;;;;;15.90;7.30;;;;;;;2.33;100.00;99274.31;4833959;29;20500;-96
2024/03/04 01:22:16;;;;;;;18.73;9.63;;;;;;;2.40;100.00;99272.06;4838137;29;20037;-95
2024/03/04 01:24:45;;;;;;;20.58;8.73;;;;;;;2.44;100.00;99265.66;4834329;29;20029;-96
2024/03/04 01:27:24;;;;;;;25.73;11.32;;;;;;;2.46;100.00;99274.19;4849845;29;20056;-95
2024/03/04 01:30:03;;;;;;;21.60;9.80;;;;;;;2.48;100.00;99267.88;4840631;29;20041;-96
2024/03/04 01:32:49;;;;;;;16.05;8.82;;;;;;;2.51;100.00;99260.78;4835033;29;20072;-95
2024/03/04 01:35:17;;;;;;;17.30;8.70;;;;;;;2.48;100.00;99262.69;4849290;29;20060;-95
2024/03/04 01:37:44;;;;;;;12.57;6.30;;;;;;;2.51;100.00;99260.78;4852253;29;20040;-95
2024/03/04 01:40:13;;;;;;;14.43;7.32;;;;;;;2.53;100.00;99253.66;4862293;29;20040;-95
2024/03/04 01:42:44;;;;;;;16.30;8.48;;;;;;;2.54;100.00;99253.56;4864578;29;20523;-95
2024/03/04 01:45:26;;;;;;;19.90;10.70;;;;;;;2.52;100.00;99252.84;4855224;29;20033;-96
2024/03/04 01:48:04;;;;;;;22.02;12.30;;;;;;;2.55;100.00;99257.81;4859104;29;20045;-96
2024/03/04 01:50:43;;;;;;;26.02;11.02;;;;;;;2.53;100.00;99257.13;4848492;29;20264;-96
2024/03/04 01:53:35;;;;;;;25.48;11.55;;;;;;;2.56;100.00;99256.03;4835585;29;20484;-96
2024/03/04 01:56:04;;;;;;;20.15;10.07;;;;;;;2.52;100.00;99246.78;4837895;29;20041;-95
2024/03/04 01:58:38;;;;;;;19.92;11.05;;;;;;;2.52;100.00;99244.16;4865692;29;20156;-95
2024/03/04 02:01:07;;;;;;;23.67;10.45;;;;;;;2.52;100.00;99236.34;4845793;29;20514;-95
2024/03/04 02:03:35;;;;;;;20.48;10.80;;;;;;;2.51;100.00;99234.69;4852535;29;20066;-96
2024/03/04 02:06:09;;;;;;;21.17;10.20;;;;;;;2.51;100.00;99222.50;4863214;29;20045;-96
2024/03/04 02:08:39;;;;;;;20.38;9.65;;;;;;;2.57;100.00;99229.81;4845215;29;20081;-96
2024/03/04 02:11:06;;;;;;;18.30;8.88;;;;;;;2.60;100.00;99220.91;4850877;29;20491;-96
2024/03/04 02:13:37;;;;;;;20.27;8.52;;;;;;;2.65;100.00;99225.75;4841530;29;20480;-95
2024/03/04 02:16:26;;;;;;;38.17;9.43;;;;;;;2.67;100.00;99226.47;4864837;29;20037;-95
2024/03/04 02:18:53;;;;;;;23.45;9.40;;;;;;;2.67;100.00;99219.50;4848908;29;20033;-95
2024/03/04 02:21:25;;;;;;;31.60;9.35;;;;;;;2.71;100.00;99220.03;4846432;29;20864;-96
2024/03/04 02:23:58;;;;;;;17.48;7.72;;;;;;;2.69;100.00;99214.16;4831716;29;20041;-95
2024/03/04 02:26:25;;;;;;;18.15;8.20;;;;;;;2.66;100.00;99214.41;4849242;29;20057;-95
2024/03/04 02:29:00;;;;;;;16.02;8.43;;;;;;;2.59;100.00;99207.06;4842076;29;20061;-96
2024/03/04 02:31:29;;;;;;;17.13;6.28;;;;;;;2.55;100.00;99208.25;4835835;29;20128;-95
2024/03/04 02:33:57;;;;;;;12.70;5.65;;;;;;;2.62;100.00;99203.38;4849415;29;20033;-96
2024/03/04 02:36:27;;;;;;;12.93;5.40;;;;;;;2.66;100.00;99206.56;4829824;29;20060;-96
2024/03/04 02:39:03;;;;;;;11.52;5.15;;;;;;;2.76;100.00;99217.06;4846811;29;20053;-96
2024/03/04 02:41:32;;;;;;;16.65;7.20;;;;;;;2.75;100.00;99210.19;4848989;29;20053;-96
2024/03/04 02:43:58;;;;;;;17.58;5.25;;;;;;;2.80;100.00;99205.44;4848499;29;20040;-95
2024/03/04 02:46:27;;;;;;;15.38;5.15;;;;;;;2.82;100.00;99201.75;4848021;29;20041;-96
2024/03/04 02:54:45;;;;;;;18.92;6.68;;;;;;;2.81;100.00;99194.88;5607153;23;20096;-95
2024/03/04 02:57:11;;;;;;;19.65;7.75;;;;;;;2.79;100.00;99188.94;4897947;29;20071;-96
2024/03/04 03:05:45;;;;;;;14.63;6.40;;;;;;;2.76;100.00;99193.59;5678051;23;20044;-95
2024/03/04 03:08:21;;;;;;;17.67;9.40;;;;;;;2.79;100.00;99193.31;4899050;29;20084;-94
2024/03/04 03:11:00;;;;;;;20.65;6.68;;;;;;;2.79;100.00;99191.56;4887956;29;20036;-95
2024/03/04 03:13:56;;;;;;;14.82;6.65;;;;;;;2.73;100.00;99194.66;4906363;29;20035;-94
2024/03/04 03:16:25;;;;;;;30.75;7.93;;;;;;;2.67;100.00;99184.72;4914087;29;20683;-95
2024/03/04 03:19:00;;;;;;;14.38;7.03;;;;;;;2.65;100.00;99179.63;4884189;29;20040;-96
2024/03/04 03:21:59;;;;;;;;;;;;;;;;;;;;;
2024/03/04 03:24:48;;;;;;;12.65;6.95;;;;;;;2.59;100.00;99175.75;4912675;29;20055;-96
2024/03/04 03:27:14;;;;;;;15.98;5.90;;;;;;;2.58;100.00;99171.47;4918595;29;20036;-96
2024/03/04 03:29:40;;;;;;;13.93;6.47;;;;;;;2.49;100.00;99172.22;4886556;29;20039;-96
2024/03/04 03:32:09;;;;;;;10.63;5.45;;;;;;;2.54;100.00;99171.84;4900111;29;20809;-96
2024/03/04 03:34:49;;;;;;;12.18;6.70;;;;;;;2.55;100.00;99166.50;4886624;29;20074;-95
2024/03/04 03:37:30;;;;;;;10.13;5.68;;;;;;;2.59;100.00;99174.91;4900686;29;20482;-96
2024/03/04 03:40:54;;;;;;;14.63;5.75;;;;;;;2.66;100.00;99176.06;4903096;29;20032;-96
2024/03/04 03:43:33;;;;;;;12.55;6.60;;;;;;;2.65;100.00;99176.19;4883628;29;20032;-96
2024/03/04 03:46:01;;;;;;;14.13;4.80;;;;;;;2.64;100.00;99177.16;4894213;29;20048;-94
2024/03/04 03:48:29;;;;;;;19.35;5.53;;;;;;;2.71;100.00;99163.47;4901585;29;20043;-96
2024/03/04 03:51:02;;;;;;;26.17;6.13;;;;;;;2.72;100.00;99151.28;4899631;29;20499;-95
2024/03/04 03:53:36;;;;;;;19.10;6.20;;;;;;;2.73;100.00;99145.94;4903233;29;20036;-96
2024/03/04 03:56:05;;;;;;;15.10;6.32;;;;;;;2.70;100.00;99140.97;4882197;29;20039;-95
2024/03/04 03:58:35;;;;;;;11.65;5.80;;;;;;;2.58;100.00;99134.94;4893039;29;20079;-94
2024/03/04 04:01:01;;;;;;;16.08;5.85;;;;;;;2.51;100.00;99141.63;4872341;29;20126;-96
2024/03/04 04:03:28;;;;;;;16.30;6.15;;;;;;;2.50;100.00;99126.09;4886010;29;20040;-96
2024/03/04 04:05:54;;;;;;;16.40;4.93;;;;;;;2.56;100.00;99125.59;4899763;29;20087;-95
2024/03/04 04:11:28;;;;;;;7.82;3.47;;;;;;;2.78;100.00;99127.28;4902940;29;20047;-96
2024/03/04 04:14:01;;;;;;;15.23;3.67;;;;;;;2.91;100.00;99126.25;4911582;29;20040;-96
2024/03/04 04:16:28;;;;;;;8.90;4.00;;;;;;;2.95;100.00;99125.03;4883958;29;20040;-96
2024/03/04 04:18:55;;;;;;;16.10;4.28;;;;;;;2.97;100.00;99121.38;4891900;29;20118;-95
2024/03/04 04:21:26;;;;;;;14.05;3.38;;;;;;;3.00;100.00;99111.59;4902622;29;20031;-95
2024/03/04 04:26:43;;;;;;;13.68;2.97;;;;;;;3.05;100.00;99094.63;4896717;29;20040;-91
2024/03/04 04:29:19;;;;;;;15.45;3.60;;;;;;;3.13;100.00;99093.97;4914618;23;20040;-93
2024/03/04 04:31:46;;;;;;;16.92;3.10;;;;;;;3.08;100.00;99086.53;4832353;29;20529;-96
2024/03/04 04:34:14;;;;;;;12.40;2.47;;;;;;;3.16;100.00;99082.44;4855844;29;20094;-96
2024/03/04 04:37:15;;;;;;;9.23;2.95;;;;;;;3.19;100.00;99077.78;4851237;29;20046;-96
2024/03/04 04:39:58;;;;;;;9.82;2.40;;;;;;;3.25;100.00;99092.09;4830995;29;20182;-96
2024/03/04 04:43:20;;;;;;;;;;;;;;;;;;;;;
2024/03/04 04:45:56;;;;;;;13.20;2.53;;;;;;;3.30;100.00;99074.25;4844642;29;20128;-96
2024/03/04 04:51:33;;;;;;;7.82;1.77;;;;;;;3.47;100.00;99083.25;4888257;29;20427;-92
2024/03/04 04:54:48;;;;;;;;;;;;;;;;;;;;;
2024/03/04 04:57:28;;;;;;;9.30;2.28;;;;;;;3.56;100.00;99068.56;4872450;29;20049;-96
2024/03/04 05:00:15;;;;;;;8.52;2.22;;;;;;;3.63;100.00;99065.44;4832437;29;20033;-96
2024/03/04 05:03:03;;;;;;;6.20;1.55;;;;;;;3.63;100.00;99075.88;4865854;29;20041;-96
2024/03/04 05:06:23;;;;;;;9.95;2.08;;;;;;;3.66;100.00;99073.84;4842849;29;20087;-96
2024/03/04 05:20:57;;;;;;;9.75;2.05;;;;;;;3.78;100.00;99064.09;4881485;29;20052;-93
2024/03/04 05:23:38;;;;;;;;;;;;;;;;;;;;;
2024/03/04 05:26:14;;;;;;;9.88;1.55;;;;;;;3.78;100.00;99052.78;4896472;29;20046;-92
2024/03/04 05:28:44;;;;;;;9.85;2.33;;;;;;;3.78;100.00;99056.25;4875482;29;20476;-89
2024/03/04 05:31:39;;;;;;;5.78;1.02;;;;;;;3.91;100.00;99052.53;4867292;29;20539;-92
2024/03/04 05:38:21;;;;;;;10.45;1.17;;;;;;;4.10;100.00;99043.91;4867043;29;20048;-91
2024/03/04 05:48:11;;;;;;;6.95;0.88;;;;;;;4.35;100.00;99025.97;4889406;29;20111;-89
2024/03/04 05:50:49;;;;;;;2.88;0.90;;;;;;;4.39;100.00;99029.16;4861713;29;20038;-91
2024/03/04 05:53:20;;;;;;;5.50;0.70;;;;;;;4.33;100.00;99018.28;4861640;29;20079;-91
2024/03/04 05:56:42;;;;;;;6.50;1.50;;;;;;;4.50;100.00;99025.56;4851970;29;20039;-91
2024/03/04 06:00:05;;;;;;;6.45;1.08;;;;;;;4.53;100.00;99023.50;4863883;29;20049;-89
2024/03/04 06:04:07;;;;;;;3.17;0.57;;;;;;;4.58;100.00;99031.75;4881704;29;20051;-90
2024/03/04 06:06:51;;;;;;;6.18;0.52;;;;;;;4.61;100.00;99025.41;4877758;29;20563;-90
2024/03/04 06:10:15;;;;;;;6.82;0.80;;;;;;;4.64;100.00;99017.28;4898757;29;20044;-90
2024/03/04 06:18:13;;;;;;;5.72;1.02;;;;;;;4.67;100.00;99016.97;4856217;29;20132;-91
2024/03/04 06:26:44;;;;;;;6.93;0.73;;;;;;;4.72;100.00;99001.69;4898416;29;20077;-91
2024/03/04 06:30:12;;;;;;;;;;;;;;;;;;;;;
2024/03/04 06:36:52;;;;;;;8.85;1.00;;;;;;;4.80;100.00;98995.75;4887449;29;20108;-92
2024/03/04 06:40:18;;;;;;;4.30;0.47;;;;;;;4.84;100.00;98986.63;4844723;29;20038;-92
2024/03/04 06:43:19;;;;;;;2.22;0.80;;;;;;;4.91;100.00;98988.66;4888362;29;20044;-90
2024/03/04 06:46:07;;;;;;;9.18;0.63;;;;;;;4.86;100.00;98980.44;4871510;29;20048;-92
2024/03/04 06:49:06;;;;;;;3.78;0.50;;;;;;;4.85;100.00;98974.38;4888700;29;20071;-90
2024/03/04 06:51:35;;;;;;;5.57;0.52;;;;;;;4.77;100.00;98967.22;4884535;29;20040;-90
2024/03/04 06:54:53;;;;;;;4.53;0.60;;;;;;;4.79;100.00;98954.84;4891393;29;20043;-91
2024/03/04 06:57:29;;;;;;;4.93;0.60;;;;;;;4.79;100.00;98954.84;4864409;29;20045;-91
2024/03/04 07:00:36;;;;;;;9.25;0.70;;;;;;;4.77;100.00;98953.31;4883985;29;20078;-91
2024/03/04 07:03:21;;;;;;;8.05;1.50;;;;;;;4.82;100.00;98954.53;4866152;29;21579;-91
2024/03/04 07:06:13;;;;;;;2.95;0.50;;;;;;;4.73;100.00;98947.53;4870910;29;20515;-91
2024/03/04 07:08:53;;;;;;;9.02;1.92;;;;;;;4.87;100.00;98958.50;4864398;29;20120;-91
2024/03/04 07:11:54;;;;;;;10.02;2.00;;;;;;;4.82;100.00;98946.69;4871906;29;20078;-90
2024/03/04 07:14:26;;;;;;;6.72;1.40;;;;;;;4.85;100.00;98953.41;4890153;29;20122;-90
2024/03/04 07:16:54;;;;;;;9.57;1.20;;;;;;;4.92;100.00;98940.59;4879309;29;20039;-90
2024/03/04 07:19:44;;;;;;;5.15;1.48;;;;;;;4.91;100.00;98938.91;4889873;29;20028;-90
2024/03/04 07:22:59;;;;;;;12.18;2.40;;;;;;;4.91;100.00;98931.06;4870562;29;20056;-92
2024/03/04 07:25:31;;;;;;;5.40;0.95;;;;;;;4.90;100.00;98930.25;4872606;29;20040;-90
2024/03/04 07:28:05;;;;;;;6.47;0.65;;;;;;;4.96;100.00;98934.91;4858673;29;20475;-89
2024/03/04 07:30:34;;;;;;;9.80;0.95;;;;;;;4.95;100.00;98941.09;4876368;29;20037;-90
2024/03/04 07:33:24;;;;;;;4.72;0.55;;;;;;;5.00;100.00;98924.16;4877326;29;20055;-90
2024/03/04 07:35:50;;;;;;;8.00;0.90;;;;;;;5.08;100.00;98921.63;4864855;29;20067;-90
2024/03/04 07:38:17;;;;;;;1.75;0.50;;;;;;;5.14;100.00;98920.19;4882466;29;20072;-89
2024/03/04 07:40:53;;;;;;;5.07;0.63;;;;;;;5.34;100.00;98911.25;4852445;29;20132;-91
2024/03/04 07:43:42;;;;;;;4.20;1.02;;;;;;;5.32;100.00;98907.94;4877715;29;20135;-89
2024/03/04 07:46:29;;;;;;;3.83;0.88;;;;;;;5.38;100.00;98908.34;4866787;29;20040;-86
2024/03/04 07:49:18;;;;;;;3.85;0.60;;;;;;;5.40;100.00;98907.19;4885433;29;20044;-92
2024/03/04 07:52:52;;;;;;;4.70;0.43;;;;;;;5.48;100.00;98905.66;4881468;29;20051;-88
2024/03/04 07:55:46;;;;;;;7.65;0.73;;;;;;;5.48;100.00;98910.88;4883952;29;20115;-90
2024/03/04 07:58:42;;;;;;;;;;;;;;;;;;;;;
2024/03/04 08:01:17;;;;;;;3.90;0.50;;;;;;;5.44;100.00;98895.47;4870687;29;20496;-88
2024/03/04 08:03:51;;;;;;;4.68;0.30;;;;;;;5.55;100.00;98885.72;4870465;29;20083;-87
2024/03/04 08:06:57;;;;;;;4.18;0.45;;;;;;;5.70;100.00;98893.88;4863594;29;20069;-93
2024/03/04 08:09:31;;;;;;;9.48;1.17;;;;;;;5.72;100.00;98884.06;4863571;29;20075;-88
2024/03/04 08:11:57;;;;;;;4.28;0.93;;;;;;;5.61;100.00;98879.88;4855234;29;20070;-86
2024/03/04 08:15:03;;;;;;;9.15;0.82;;;;;;;5.75;100.00;98888.19;4866436;29;20056;-90
2024/03/04 08:17:46;;;;;;;5.40;0.85;;;;;;;5.78;100.00;98886.06;4879132;29;20036;-90
2024/03/04 08:20:15;;;;;;;6.07;0.60;;;;;;;5.69;100.00;98873.88;4863774;29;20045;-91
2024/03/04 08:22:41;;;;;;;6.30;1.05;;;;;;;5.71;100.00;98880.63;4863101;29;20055;-92
2024/03/04 08:25:39;;;;;;;8.55;0.82;;;;;;;5.88;100.00;98872.03;4885124;29;20075;-90
2024/03/04 08:28:27;;;;;;;7.82;0.93;;;;;;;5.84;100.00;98858.44;4858080;29;20590;-90
2024/03/04 08:31:24;;;;;;;6.53;1.20;;;;;;;5.86;100.00;98845.16;4865989;29;20654;-93
2024/03/04 08:33:55;;;;;;;9.80;1.50;;;;;;;5.86;100.00;98845.97;4882106;29;20444;-87
2024/03/04 08:36:24;;;;;;;7.80;1.00;;;;;;;5.99;100.00;98844.75;4890224;29;20040;-88
2024/03/04 08:38:56;;;;;;;3.95;0.43;;;;;;;5.92;100.00;98848.00;4880978;29;20033;-91
2024/03/04 08:41:24;;;;;;;4.40;0.73;;;;;;;5.96;100.00;98838.84;4862164;29;20123;-87
2024/03/04 08:43:58;;;;;;;6.20;0.70;;;;;;;5.99;100.00;98834.28;4865942;29;20092;-89
2024/03/04 08:46:27;;;;;;;9.32;1.33;;;;;;;6.08;100.00;98820.25;4865082;29;20040;-87
2024/03/04 08:48:53;;;;;;;6.85;1.17;;;;;;;6.08;100.00;98825.50;4849070;29;20040;-88
2024/03/04 08:51:25;;;;;;;10.07;1.27;;;;;;;6.13;100.00;98817.16;4851879;29;20128;-89
2024/03/04 08:53:53;;;;;;;6.65;1.60;;;;;;;6.19;100.00;98827.03;4873475;29;20025;-90
2024/03/04 08:56:19;;;;;;;6.13;1.20;;;;;;;6.21;100.00;98806.72;4876965;29;20072;-89
2024/03/04 08:59:28;;;;;;;8.57;1.30;;;;;;;6.35;100.00;98812.34;4870008;29;20070;-88
2024/03/04 09:02:25;;;;;;;5.55;1.40;;;;;;;6.35;100.00;98813.19;4888985;29;20063;-88
2024/03/04 09:04:51;;;;;;;10.10;1.15;;;;;;;6.39;100.00;98806.63;4877288;29;20065;-88
2024/03/04 09:07:17;;;;;;;7.15;0.63;;;;;;;6.54;100.00;98785.84;4868459;29;20037;-90
2024/03/04 09:09:52;;;;;;;10.23;1.10;;;;;;;6.70;100.00;98805.25;4886703;29;20123;-90
2024/03/04 09:12:30;;;;;;;2.78;0.88;;;;;;;6.75;100.00;98787.22;4864851;29;20037;-91
2024/03/04 09:15:02;;;;;;;10.27;1.13;;;;;;;6.69;100.00;98787.84;4857667;29;20193;-89
2024/03/04 09:17:31;;;;;;;8.65;1.02;;;;;;;6.91;100.00;98788.25;4892076;29;20055;-85
2024/03/04 09:20:06;;;;;;;10.02;1.55;;;;;;;7.19;100.00;98780.06;4891931;29;20028;-91
2024/03/04 09:22:33;;;;;;;8.95;0.82;;;;;;;7.32;100.00;98772.50;4856346;29;20060;-89
2024/03/04 09:28:59;;;;;;;3.08;0.40;;;;;;;7.27;100.00;98763.47;4882960;29;20400;-91
2024/03/04 09:32:24;;;;;;;6.25;1.10;;;;;;;7.41;100.00;98760.16;4868037;29;20123;-88
2024/03/04 09:34:54;;;;;;;2.53;0.63;;;;;;;7.32;100.00;98761.16;4863648;29;20037;-89
2024/03/04 09:37:27;;;;;;;2.50;0.60;;;;;;;6.83;100.00;98754.91;4883745;29;20060;-88
2024/03/04 09:40:25;;;;;;;2.93;0.33;;;;;;;7.14;100.00;98756.88;4854726;29;20040;-93
2024/03/04 09:42:54;;;;;;;2.90;1.08;;;;;;;7.09;100.00;98743.41;4862164;29;20108;-87
2024/03/04 09:45:26;;;;;;;7.85;0.85;;;;;;;7.17;100.00;98732.91;4871395;29;20040;-93
2024/03/04 09:51:27;;;;;;;6.30;0.88;;;;;;;7.05;100.00;98724.56;4837124;29;20044;-95
2024/03/04 09:53:58;;;;;;;5.82;0.68;;;;;;;6.91;100.00;98699.72;4887190;29;20039;-94
2024/03/04 09:56:58;;;;;;;2.92;0.73;;;;;;;7.12;100.00;98706.31;4870346;29;20040;-94
2024/03/04 10:02:39;;;;;;;5.32;0.85;;;;;;;7.12;100.00;98708.13;4857558;29;20061;-94
2024/03/04 10:05:25;;;;;;;3.65;0.68;;;;;;;7.02;100.00;98705.66;4849834;29;20048;-94
2024/03/04 10:08:02;;;;;;;6.13;0.88;;;;;;;7.01;100.00;98696.13;4868925;29;20041;-95
2024/03/04 10:10:40;;;;;;;6.43;1.25;;;;;;;7.17;100.00;98688.25;4892116;29;20087;-93
2024/03/04 10:17:24;;;;;;;7.78;0.90;;;;;;;7.28;100.00;98697.59;4880752;29;20048;-95
2024/03/04 10:20:24;;;;;;;5.30;0.68;;;;;;;7.29;100.00;98693.97;4867385;29;20040;-94
2024/03/04 10:23:05;;;;;;;4.65;0.70;;;;;;;7.24;100.00;98683.16;4854918;29;20081;-96
2024/03/04 10:33:21;;;;;;;4.00;0.38;;;;;;;7.00;100.00;98666.44;4878947;29;20067;-94
2024/03/04 10:39:22;;;;;;;2.45;0.40;;;;;;;7.02;100.00;98659.22;4877678;29;20053;-95
2024/03/04 10:42:27;;;;;;;7.38;1.65;;;;;;;6.99;100.00;98648.19;4879642;29;20041;-96
2024/03/04 10:45:31;;;;;;;4.97;1.23;;;;;;;7.07;100.00;98651.63;4862652;29;20075;-95
2024/03/04 10:50:48;;;;;;;1.50;0.50;;;;;;;6.83;100.00;98655.91;4861806;29;20567;-92
2024/03/04 10:53:30;;;;;;;;;;;;;;;;;;;;;
2024/03/04 10:56:23;;;;;;;2.22;0.52;;;;;;;6.89;100.00;98646.56;4910478;29;20058;-93
2024/03/04 10:59:02;;;;;;;2.30;0.40;;;;;;;6.85;100.00;98650.50;4886940;29;20647;-96
2024/03/04 11:04:59;;;;;;;4.47;0.40;;;;;;;6.87;100.00;98643.28;4832960;29;20046;-96
2024/03/04 11:07:46;;;;;;;1.15;0.60;;;;;;;6.95;100.00;98650.34;4818596;29;20037;-96
2024/03/04 11:10:56;;;;;;;5.07;0.50;;;;;;;6.93;100.00;98636.53;4835014;29;20042;-96
2024/03/04 11:14:46;;;;;;;1.83;0.32;;;;;;;6.77;100.00;98625.06;4835274;29;20041;-96
2024/03/04 11:24:57;;;;;;;5.47;0.55;;;;;;;6.93;100.00;98616.34;4910623;29;20120;-96
2024/03/04 11:31:51;;;;;;;2.42;0.45;;;;;;;6.91;100.00;98622.78;4894406;29;20515;-96
2024/03/04 11:34:21;;;;;;;2.85;0.88;;;;;;;6.75;100.00;98623.59;4877176;29;20040;-93
2024/03/04 11:37:44;;;;;;;5.00;0.75;;;;;;;6.52;100.00;98614.56;4884959;29;20567;-96
2024/03/04 11:40:36;;;;;;;2.60;0.45;;;;;;;6.38;100.00;98608.16;4829618;29;20117;-96
2024/03/04 11:51:09;;;;;;;;;;;;;;;;;;;;;
2024/03/04 11:54:15;;;;;;;2.38;0.38;;;;;;;6.79;100.00;98572.38;4884601;29;20266;-96
2024/03/04 11:57:29;;;;;;;1.42;0.25;;;;;;;6.94;100.00;98567.28;4854227;29;20226;-96
2024/03/04 12:00:29;;;;;;;3.30;0.38;;;;;;;6.83;100.00;98565.81;4862867;29;20049;-96
2024/03/04 12:07:57;;;;;;;1.20;0.15;;;;;;;6.76;100.00;98575.34;4827249;29;20156;-95
2024/03/04 12:11:04;;;;;;;1.67;0.47;;;;;;;6.79;100.00;98560.06;4847978;29;20053;-95
2024/03/04 12:13:58;;;;;;;0.77;0.30;;;;;;;6.44;100.00;98569.94;4873325;29;20047;-89
2024/03/04 12:16:36;;;;;;;2.03;0.38;;;;;;;6.67;100.00;98546.44;4850448;29;20052;-93
2024/03/04 12:19:54;;;;;;;0.80;0.20;;;;;;;6.37;100.00;98548.78;4864032;29;20044;-93
2024/03/04 12:22:37;;;;;;;2.05;0.55;;;;;;;6.64;100.00;98531.03;4885172;29;20055;-94
2024/03/04 12:25:12;;;;;;;3.40;0.40;;;;;;;6.48;100.00;98531.06;4885763;29;20040;-94
2024/03/04 12:28:47;;;;;;;1.52;0.47;;;;;;;6.17;100.00;98514.19;4882715;29;20182;-92
2024/03/04 12:31:26;;;;;;;3.13;0.57;;;;;;;6.12;100.00;98551.38;4887216;29;20135;-91
2024/03/04 12:34:06;;;;;;;7.82;2.45;;;;;;;6.40;100.00;98524.03;4878585;29;20032;-91
2024/03/04 12:36:49;;;;;;;2.03;0.80;;;;;;;6.24;100.00;98546.66;4861177;29;20660;-91
2024/03/04 12:39:22;;;;;;;4.35;0.68;;;;;;;6.10;100.00;98548.09;4854815;29;20169;-90
2024/03/04 12:42:01;;;;;;;1.90;0.40;;;;;;;5.94;100.00;98543.66;4877783;29;20079;-90
2024/03/04 12:44:53;;;;;;;4.10;0.50;;;;;;;5.97;100.00;98522.34;4861573;29;20049;-94
2024/03/04 12:47:39;;;;;;;3.92;0.77;;;;;;;6.03;100.00;98542.66;4878123;29;20043;-96
2024/03/04 12:50:26;;;;;;;2.97;0.60;;;;;;;5.95;100.00;98509.38;4893867;29;20048;-93
2024/03/04 12:56:21;;;;;;;7.53;1.00;;;;;;;5.85;100.00;98516.56;4875640;29;20551;-89
2024/03/04 12:59:12;;;;;;;3.50;0.63;;;;;;;5.93;100.00;98494.78;4888704;29;20039;-91
2024/03/04 13:01:55;;;;;;;4.70;1.25;;;;;;;5.92;100.00;98485.28;4881359;29;20028;-94
2024/03/04 13:04:27;;;;;;;2.67;0.43;;;;;;;5.94;100.00;98480.72;4864271;29;20028;-91
2024/03/04 13:07:02;;;;;;;1.23;0.32;;;;;;;5.71;100.00;98497.06;4893646;29;20128;-92
2024/03/04 13:09:37;;;;;;;3.20;0.53;;;;;;;5.77;100.00;98491.16;4848860;29;20055;-92
2024/03/04 13:13:01;;;;;;;1.52;0.40;;;;;;;5.86;100.00;98462.34;4897919;29;20498;-95
2024/03/04 13:15:40;;;;;;;0.22;0.03;;;;;;;5.75;100.00;98466.09;4903709;29;20107;-89
2024/03/04 13:18:43;;;;;;;1.35;0.20;;;;;;;5.78;100.00;98453.47;4868992;29;20092;-90
2024/03/04 13:21:18;;;;;;;2.35;0.20;;;;;;;5.74;100.00;98459.19;4853353;29;20058;-94
2024/03/04 13:24:00;;;;;;;0.10;0.10;;;;;;;5.64;100.00;98472.47;4875285;29;20037;-89
2024/03/04 13:26:59;;;;;;;2.80;0.20;;;;;;;5.81;100.00;98449.72;4872418;29;20067;-93
2024/03/04 13:29:54;;;;;;;;;;;;;;;;;;;;;
2024/03/04 13:33:08;;;;;;;2.78;0.43;;;;;;;5.73;100.00;98440.06;4864559;29;20041;-92
2024/03/04 13:35:45;;;;;;;4.78;0.98;;;;;;;5.71;100.00;98447.25;4869688;29;20425;-89
2024/03/04 13:38:14;;;;;;;2.53;0.50;;;;;;;5.77;100.00;98443.97;4864562;29;20153;-91
2024/03/04 13:40:55;;;;;;;1.02;0.22;;;;;;;5.79;100.00;98415.81;4835948;29;20171;-91
2024/03/04 13:43:31;;;;;;;0.73;0.28;;;;;;;5.75;100.00;98424.16;4857368;29;20065;-92
2024/03/04 13:46:18;;;;;;;2.20;0.43;;;;;;;5.69;100.00;98423.81;4837728;29;20116;-89
2024/03/04 13:48:47;;;;;;;0.98;0.45;;;;;;;5.62;100.00;98419.41;4879149;29;20037;-94
2024/03/04 13:51:14;;;;;;;3.75;0.55;;;;;;;5.75;100.00;98409.22;4857335;29;20041;-88
2024/03/04 14:01:00;;;;;;;2.13;0.50;;;;;;;5.77;100.00;98367.13;4862099;29;20072;-95
2024/03/04 14:03:44;;;;;;;4.18;0.70;;;;;;;5.83;100.00;98363.84;4808293;29;20042;-91
2024/03/04 14:06:27;;;;;;;2.97;0.20;;;;;;;5.80;100.00;98344.03;4830173;29;20101;-87
2024/03/04 14:11:59;;;;;;;1.20;0.20;;;;;;;5.93;100.00;98317.31;4861587;29;20723;-92
2024/03/04 14:15:11;;;;;;;1.30;0.55;;;;;;;5.94;100.00;98312.88;4849554;29;20037;-88
2024/03/04 14:17:38;;;;;;;0.45;0.15;;;;;;;5.87;100.00;98315.34;4875285;29;20099;-90
2024/03/04 14:20:13;;;;;;;5.25;0.90;;;;;;;5.95;100.00;98283.88;4841889;29;20037;-89
2024/03/04 14:22:43;;;;;;;4.88;0.68;;;;;;;6.00;100.00;98264.19;4847221;29;20560;-90
2024/03/04 14:25:27;;;;;;;2.30;0.45;;;;;;;6.14;100.00;98284.50;4866261;29;20061;-95
2024/03/04 14:27:52;;;;;;;1.88;0.20;;;;;;;6.08;100.00;98256.31;4873343;29;20040;-92
2024/03/04 14:30:21;;;;;;;4.55;0.38;;;;;;;6.27;100.00;98264.78;4863309;29;20749;-88
2024/03/04 14:32:56;;;;;;;2.10;0.47;;;;;;;6.08;100.00;98266.81;4876097;29;20061;-89
2024/03/04 14:35:25;;;;;;;1.17;0.30;;;;;;;6.19;100.00;98265.63;4869037;29;20037;-93
2024/03/04 14:38:06;;;;;;;5.47;1.85;;;;;;;6.38;100.00;98243.41;4869688;29;20046;-93
2024/03/04 14:40:39;;;;;;;3.30;0.80;;;;;;;6.35;100.00;98240.31;4887469;29;20053;-90
2024/03/04 14:43:15;;;;;;;3.28;0.75;;;;;;;6.39;100.00;98257.31;4866251;29;20037;-92
2024/03/04 14:46:30;;;;;;;13.95;1.45;;;;;;;6.48;100.00;98252.88;4876157;29;20206;-90
2024/03/04 14:49:19;;;;;;;5.13;0.90;;;;;;;6.57;100.00;98243.97;4890951;29;20047;-88
2024/03/04 14:51:48;;;;;;;4.82;0.80;;;;;;;6.49;100.00;98249.25;4880620;29;20037;-86
2024/03/04 14:54:32;;;;;;;5.60;0.70;;;;;;;6.55;100.00;98245.94;4880193;29;20040;-89
2024/03/04 14:57:14;;;;;;;1.48;0.40;;;;;;;6.62;100.00;98252.13;4868223;29;20114;-88
2024/03/04 14:59:49;;;;;;;3.28;0.63;;;;;;;6.47;100.00;98257.28;4867527;29;20496;-91
2024/03/04 15:02:36;;;;;;;7.45;1.65;;;;;;;6.70;100.00;98238.94;4879359;29;20080;-90
2024/03/04 15:06:26;;;;;;;0.88;0.20;;;;;;;6.48;100.00;98211.72;4903599;29;20254;-96
2024/03/04 15:12:46;;;;;;;3.92;0.85;;;;;;;6.57;100.00;98200.16;4887088;29;20487;-92
2024/03/04 15:16:16;;;;;;;2.05;0.50;;;;;;;6.54;100.00;98192.63;4883069;29;20044;-93
2024/03/04 15:19:36;;;;;;;1.67;0.45;;;;;;;6.54;100.00;98190.00;4866029;29;20054;-91
2024/03/04 15:22:11;;;;;;;6.43;0.80;;;;;;;6.66;100.00;98181.72;4865102;29;21030;-92
2024/03/04 15:36:28;;;;;;;5.93;1.15;;;;;;;6.75;100.00;98119.47;4896025;29;20048;-89
2024/03/04 15:43:13;;;;;;;4.05;0.68;;;;;;;6.88;100.00;98119.66;4893959;29;20132;-93
2024/03/04 15:45:54;;;;;;;5.38;0.75;;;;;;;6.75;100.00;98108.97;4866681;29;20466;-93
2024/03/04 15:49:38;;;;;;;4.38;0.50;;;;;;;6.86;100.00;98119.06;4895695;29;20048;-91
2024/03/04 15:52:36;;;;;;;2.78;0.47;;;;;;;6.62;100.00;98094.66;4883239;29;20044;-89
2024/03/04 15:55:02;;;;;;;2.08;0.50;;;;;;;6.77;100.00;98125.38;4859922;29;20120;-87